Latest Weather Observations for Cape Flattery

IDQ60801

Issued at 9:32 pm EST Wednesday 27 May 2015 (issued every 30 minutes, with the page automatically refreshed every 10 minutes)

About weather observations | Map of weather stations | Latest weather observations for QLD | Other Formats
Station Details ID: 031213 Name: CAPE FLATTERY Lat: -14.97 Lon: 145.31 Height: 18.5 m
Data from the previous 72 hours. | See also: Recent months at Cape Flattery
Date/Time
EST
Temp
°C
App
Temp
°C
Dew
Point
Rel
Hum
%
Delta-T
°C
Wind Press
QNH
hPa
Press
MSL
hPa
Rain
since 9 am
mm
Dir
 
Spd
km/h
Gust
km/h
Spd
kts
Gust
kts
27/09:30pm 25.4 23.3 20.6 75 3.1 SE 32 46 17 25 1016.4 1016.3 0.0
27/09:00pm 25.4 22.3 20.4 74 3.3 SE 37 46 20 25 1016.3 1016.2 0.0
27/08:30pm 25.3 22.8 20.8 76 3.0 SE 35 46 19 25 1016.2 1016.1 0.0
27/08:00pm 25.4 22.3 20.4 74 3.3 SE 37 50 20 27 1015.9 1015.8 0.0
27/07:30pm 25.4 22.7 20.4 74 3.3 SE 35 48 19 26 1015.6 1015.5 0.0
27/07:00pm 25.3 23.1 20.8 76 3.0 SE 33 43 18 23 1015.2 1015.1 0.0
27/06:30pm 25.4 22.1 20.9 76 3.0 SE 39 54 21 29 1014.9 1014.8 0.0
27/06:00pm 25.4 22.9 20.9 76 3.0 SE 35 48 19 26 1014.7 1014.6 0.0
27/05:30pm 25.5 22.7 21.0 76 3.0 SE 37 50 20 27 1014.6 1014.5 0.0
27/05:00pm 25.5 22.1 20.7 75 3.1 SE 39 52 21 28 1014.7 1014.6 0.0
27/04:30pm 25.7 22.7 20.7 74 3.3 SE 37 48 20 26 1014.5 1014.4 0.0
27/04:00pm 25.7 22.6 20.5 73 3.4 SSE 37 50 20 27 1014.4 1014.3 0.0
27/03:30pm 25.9 22.9 20.7 73 3.4 SSE 37 50 20 27 1014.3 1014.2 0.0
27/03:00pm 26.1 22.8 20.9 73 3.4 SSE 39 52 21 28 1014.4 1014.3 0.0
27/02:30pm 27.1 23.8 20.9 69 4.1 SSE 39 52 21 28 1014.6 1014.5 0.0
27/02:00pm 26.9 24.2 21.9 74 3.3 SSE 39 48 21 26 1014.8 1014.7 0.0
27/01:30pm 26.3 23.6 21.3 74 3.3 SSE 37 46 20 25 1015.1 1015.0 0.0
27/01:00pm 27.5 24.6 21.5 70 4.0 SE 39 50 21 27 1015.3 1015.2 0.0
27/12:30pm 27.6 24.7 20.9 67 4.4 SE 37 50 20 27 1015.8 1015.7 0.0
27/12:00pm 27.1 23.8 20.9 69 4.1 SE 39 48 21 26 1016.2 1016.1 0.0
27/11:30am 27.8 25.6 20.4 64 4.9 SE 32 46 17 25 1016.7 1016.6 0.0
27/11:00am 27.4 24.7 20.5 66 4.5 SE 35 46 19 25 1017.1 1017.0 0.0
27/10:30am 26.8 23.7 20.4 68 4.2 SE 37 48 20 26 1017.4 1017.3 0.0
27/10:00am 25.9 23.1 20.2 71 3.7 SSE 35 48 19 26 1017.4 1017.3 0.0
27/09:30am 25.6 22.2 19.9 70 3.7 SE 37 46 20 25 1017.6 1017.5 0.0
27/09:00am 25.3 22.3 19.9 72 3.5 SE 35 46 19 25 1017.5 1017.4 0.8
27/08:30am 25.2 22.9 20.2 74 3.3 SE 32 44 17 24 1017.3 1017.2 0.8
27/08:00am 24.7 22.1 19.5 73 3.3 SE 32 44 17 24 1016.9 1016.8 0.8
27/07:30am 24.3 21.9 20.0 77 2.8 SE 32 43 17 23 1016.6 1016.5 0.8
27/07:00am 24.1 21.3 19.4 75 3.0 SE 33 43 18 23 1016.4 1016.3 0.8
27/06:30am 24.0 21.4 19.5 76 2.9 SE 32 43 17 23 1016.0 1015.9 0.8
27/06:00am 24.0 21.9 19.7 77 2.8 SE 30 44 16 24 1016.0 1015.9 0.8
27/05:30am 24.0 21.4 19.5 76 2.9 SE 32 41 17 22 1015.7 1015.6 0.8
27/05:00am 23.9 22.0 19.4 76 2.9 SE 28 43 15 23 1015.6 1015.5 0.8
27/04:30am 24.1 21.4 19.2 74 3.1 SE 32 44 17 24 1015.7 1015.6 0.8
27/04:00am 24.2 21.8 19.1 73 3.3 SE 30 43 16 23 1015.8 1015.7 0.8
27/03:30am 24.4 21.6 19.0 72 3.4 SE 32 44 17 24 1015.9 1015.8 0.8
27/03:00am 24.5 21.8 19.3 73 3.3 SE 32 41 17 22 1016.1 1016.0 0.8
27/02:30am 24.2 22.0 18.8 72 3.4 SE 28 35 15 19 1016.1 1016.0 0.8
27/02:00am 24.3 22.5 19.6 75 3.0 SE 28 39 15 21 1016.4 1016.3 0.8
27/01:30am 24.9 22.8 19.7 73 3.4 SE 30 41 16 22 1016.8 1016.7 0.8
27/01:00am 24.5 22.7 19.6 74 3.1 SE 28 37 15 20 1017.0 1016.9 0.8
27/12:30am 24.7 22.4 19.3 72 3.5 SE 30 41 16 22 1017.3 1017.2 0.8
27/12:00am 24.9 22.8 19.0 69 3.8 SE 28 39 15 21 1017.5 1017.4 0.8
 
Date/Time
EST
Temp
°C
App
Temp
°C
Dew
Point
Rel
Hum
%
Delta-T
°C
Wind Press
QNH
hPa
Press
MSL
hPa
Rain
since 9 am
mm
Dir
 
Spd
km/h
Gust
km/h
Spd
kts
Gust
kts
26/11:30pm 24.9 21.8 18.8 69 3.9 SE 33 43 18 23 1017.6 1017.5 0.8
26/11:00pm 24.7 21.7 19.1 71 3.6 SE 33 46 18 25 1017.8 1017.7 0.8
26/10:30pm 24.6 21.7 18.8 70 3.7 SE 32 43 17 23 1018.0 1017.9 0.8
26/10:00pm 24.7 22.0 19.3 72 3.5 SE 32 43 17 23 1017.9 1017.8 0.8
26/09:44pm 24.7 21.8 18.9 70 3.7 SE 32 50 17 27 1017.9 1017.8 0.8
26/09:30pm 24.7 22.0 19.3 72 3.5 SE 32 46 17 25 1017.8 1017.7 0.8
26/09:00pm 24.8 22.2 19.8 74 3.2 SE 33 46 18 25 1017.8 1017.7 0.8
26/08:30pm 24.8 22.6 20.3 76 2.9 SE 32 44 17 24 1017.7 1017.6 0.8
26/08:00pm 24.8 22.7 20.5 77 2.8 SE 32 41 17 22 1017.6 1017.5 0.8
26/07:30pm 24.3 22.4 21.0 82 2.2 SE 32 44 17 24 1017.4 1017.3 0.8
26/07:00pm 24.7 22.4 20.2 76 2.9 SE 32 43 17 23 1017.0 1016.9 0.8
26/06:30pm 24.7 22.6 20.6 78 2.7 SE 32 48 17 26 1016.8 1016.7 0.8
26/06:00pm 24.5 22.8 20.6 79 2.5 SE 30 48 16 26 1016.7 1016.6 0.8
26/05:30pm 24.8 22.1 20.5 77 2.8 SE 35 50 19 27 1016.6 1016.5 0.8
26/05:00pm 24.1 22.0 21.0 83 2.0 SSE 33 44 18 24 1016.6 1016.5 0.8
26/04:49pm 24.2 22.3 21.3 84 1.9 SSE 33 54 18 29 1016.5 1016.4 0.8
26/04:30pm 24.3 22.8 21.8 86 1.7 SE 32 46 17 25 1016.4 1016.3 0.8
26/04:00pm 23.6 22.1 21.7 89 1.3 SE 32 44 17 24 1016.5 1016.4 0.6
26/03:33pm 25.9 23.9 21.1 75 3.2 SE 33 52 18 28 1016.2 1016.1 0.4
26/03:30pm 25.6 23.0 20.6 74 3.3 SE 35 52 19 28 1016.2 1016.1 0.4
26/03:00pm 26.4 24.2 21.4 74 3.3 SE 35 48 19 26 1016.2 1016.1 0.4
26/02:30pm 26.8 22.8 20.9 70 3.9 SE 43 56 23 30 1016.3 1016.2 0.4
26/02:00pm 25.9 23.1 21.8 78 2.7 SE 39 54 21 29 1016.4 1016.3 0.4
26/01:30pm 24.6 21.3 20.9 80 2.4 SE 39 56 21 30 1016.8 1016.7 0.4
26/01:27pm 26.2 23.5 21.2 74 3.3 SE 37 56 20 30 1016.8 1016.7 0.4
26/01:00pm 26.9 23.7 21.0 70 3.9 SSE 39 54 21 29 1017.3 1017.2 0.2
26/12:30pm 26.5 23.4 21.9 76 3.1 SSE 41 52 22 28 1017.7 1017.6 0.2
26/12:00pm 24.0 21.4 21.5 86 1.6 SE 37 54 20 29 1018.3 1018.2 0.2
26/11:30am 26.4 23.8 21.4 74 3.3 SE 37 50 20 27 1018.6 1018.5 0.0
26/11:13am 24.9 21.8 21.2 80 2.4 SE 39 57 21 31 1018.7 1018.6 0.0
26/11:00am 26.5 22.6 20.3 68 4.0 SE 41 54 22 29 1018.9 1018.8 0.0
26/10:38am 25.6 23.0 20.6 74 3.3 SE 35 54 19 29 1019.1 1019.0 0.0
26/10:30am 26.3 23.4 20.8 71 3.6 SE 37 50 20 27 1019.2 1019.1 0.0
26/10:00am 26.7 23.6 20.5 69 4.1 SE 37 50 20 27 1019.2 1019.1 0.0
26/09:30am 26.5 23.3 21.0 72 3.6 SE 39 54 21 29 1019.3 1019.2 0.0
26/09:00am 26.2 23.1 20.5 71 3.7 SE 37 52 20 28 1019.3 1019.2 4.0
26/08:30am 26.0 22.3 20.8 73 3.4 SE 41 56 22 30 1019.0 1018.9 4.0
26/08:00am 25.5 22.1 20.7 75 3.1 SE 39 54 21 29 1018.9 1018.8 4.0
26/07:53am 24.9 22.5 20.4 76 2.9 SE 33 54 18 29 1018.8 1018.7 4.0
26/07:30am 25.2 23.3 20.9 77 2.8 SE 32 46 17 25 1018.6 1018.5 4.0
26/07:00am 24.8 22.1 20.5 77 2.8 SE 35 48 19 26 1018.4 1018.3 4.0
26/06:30am 24.6 22.0 20.7 79 2.6 SSE 35 50 19 27 1018.0 1017.9 4.0
26/06:06am 24.7 21.6 20.4 77 2.8 SE 37 56 20 30 1017.9 1017.8 4.0
26/06:00am 24.7 21.6 20.4 77 2.8 SE 37 50 20 27 1017.9 1017.8 4.0
26/05:36am 24.7 22.0 20.4 77 2.8 SE 35 54 19 29 1017.7 1017.6 4.0
26/05:30am 24.6 21.5 20.5 78 2.7 SE 37 50 20 27 1017.7 1017.6 4.0
26/05:00am 24.7 21.5 20.2 76 2.9 SE 37 52 20 28 1017.6 1017.5 4.0
26/04:30am 24.8 21.7 20.5 77 2.8 SE 37 52 20 28 1017.6 1017.5 4.0
26/04:00am 24.6 21.4 20.3 77 2.8 SSE 37 46 20 25 1017.6 1017.5 4.0
26/03:30am 24.9 22.4 20.8 78 2.7 SE 35 46 19 25 1017.6 1017.5 4.0
26/03:00am 25.0 22.0 20.7 77 2.8 SE 37 52 20 28 1017.9 1017.8 4.0
26/02:30am 24.8 21.7 20.5 77 2.8 SE 37 50 20 27 1018.0 1017.9 4.0
26/02:00am 24.8 21.5 20.1 75 3.0 SE 37 48 20 26 1018.3 1018.2 4.0
26/01:30am 24.8 21.3 20.3 76 2.9 SE 39 54 21 29 1018.5 1018.4 4.0
26/01:02am 24.9 21.4 20.4 76 2.9 SE 39 57 21 31 1018.7 1018.6 4.0
26/01:00am 24.9 21.8 20.4 76 2.9 SE 37 54 20 29 1018.7 1018.6 4.0
26/12:30am 24.9 21.4 20.4 76 2.9 SE 39 52 21 28 1018.8 1018.7 4.0
26/12:00am 25.1 21.1 20.1 74 3.2 SE 41 56 22 30 1018.9 1018.8 4.0
 
Date/Time
EST
Temp
°C
App
Temp
°C
Dew
Point
Rel
Hum
%
Delta-T
°C
Wind Press
QNH
hPa
Press
MSL
hPa
Rain
since 9 am
mm
Dir
 
Spd
km/h
Gust
km/h
Spd
kts
Gust
kts
25/11:30pm 24.9 21.7 20.2 75 3.1 SE 37 52 20 28 1019.0 1018.9 4.0
25/11:00pm 24.9 21.7 20.2 75 3.0 SE 37 52 20 28 1019.0 1018.9 4.0
25/10:30pm 24.9 22.1 20.2 75 3.1 SE 35 50 19 27 1019.4 1019.3 4.0
25/10:10pm 24.9 21.9 19.9 74 3.2 SE 35 54 19 29 1019.3 1019.2 4.0
25/10:00pm 24.9 21.3 20.2 75 3.0 SE 39 52 21 28 1019.4 1019.3 4.0
25/09:30pm 24.9 21.5 19.9 74 3.2 SE 37 56 20 30 1019.3 1019.2 3.8
25/09:14pm 25.1 21.8 20.1 74 3.2 SE 37 56 20 30 1019.3 1019.2 3.8
25/09:00pm 25.0 21.5 20.5 76 2.9 SE 39 54 21 29 1019.2 1019.1 3.8
25/08:30pm 25.1 21.5 20.1 74 3.2 SE 39 54 21 29 1019.1 1019.0 3.8
25/08:00pm 25.1 21.6 20.4 75 3.1 SE 39 52 21 28 1018.7 1018.6 3.8
25/07:30pm 24.9 21.6 20.8 78 2.7 SE 39 56 21 30 1018.3 1018.2 3.8
25/07:00pm 24.8 22.3 20.9 79 2.6 SE 35 44 19 24 1018.0 1017.9 3.8
25/06:30pm 24.8 21.3 20.5 77 2.8 SE 39 52 21 28 1017.6 1017.5 3.8
25/06:00pm 24.8 21.5 20.9 79 2.6 SE 39 50 21 27 1017.4 1017.3 3.8
25/05:30pm 24.9 22.1 21.0 79 2.6 SE 37 48 20 26 1017.2 1017.1 3.8
25/05:17pm 25.0 23.1 21.3 80 2.4 SE 33 52 18 28 1017.1 1017.0 3.8
25/05:00pm 25.0 22.7 21.3 80 2.4 SE 35 48 19 26 1017.1 1017.0 3.8
25/04:30pm 25.0 22.8 21.5 81 2.3 SE 35 46 19 25 1017.0 1016.9 3.8
25/04:00pm 23.6 21.8 21.5 88 1.4 SE 33 46 18 25 1016.9 1016.8 3.8
25/03:30pm 25.8 23.0 21.7 78 2.7 SE 39 52 21 28 1016.8 1016.7 3.6
25/03:00pm 25.8 23.6 22.1 80 2.5 SE 37 54 20 29 1017.0 1016.9 3.6
25/02:30pm 24.6 23.8 22.3 87 1.5 SE 30 48 16 26 1017.2 1017.1 3.6
25/02:00pm 23.1 21.9 21.5 91 1.1 E 30 48 16 26 1017.5 1017.4 3.6
25/01:31pm 24.1 22.8 22.5 91 1.1 ESE 33 52 18 28 1017.8 1017.7 2.0
25/01:30pm 24.2 22.6 22.6 91 1.1 ESE 35 52 19 28 1017.8 1017.7 2.0
25/01:00pm 26.6 24.2 21.8 75 3.2 SE 37 59 20 32 1018.4 1018.3 0.0
25/12:31pm 26.4 24.2 21.4 74 3.3 SE 35 54 19 29 1018.7 1018.6 0.0
25/12:30pm 26.4 23.8 21.4 74 3.3 SE 37 54 20 29 1018.7 1018.6 0.0
25/12:19pm 26.7 24.5 20.8 70 3.9 SE 33 52 18 28 1018.7 1018.6 0.0
25/12:00pm 28.8 27.3 22.8 70 4.1 SE 35 48 19 26 1018.9 1018.8 0.0
25/11:30am 27.4 24.6 21.0 68 4.2 SE 37 50 20 27 1019.4 1019.3 0.0
25/11:00am 27.8 25.0 21.8 70 4.0 SE 39 52 21 28 1019.6 1019.5 0.0
25/10:30am 27.8 25.0 21.1 67 4.4 SE 37 52 20 28 1019.8 1019.7 0.0
25/10:00am 27.3 25.0 21.3 69 4.0 SE 35 50 19 27 1019.8 1019.7 0.0
25/09:50am 27.5 25.5 21.8 71 3.8 SE 35 54 19 29 1019.8 1019.7 0.0
25/09:30am 26.9 25.3 21.9 74 3.3 SE 33 48 18 26 1019.7 1019.6 0.0
25/09:09am 26.6 24.4 21.4 73 3.5 SE 35 54 19 29 1019.5 1019.4 0.0
25/09:00am 26.6 24.5 21.6 74 3.3 SE 35 50 19 27 1019.5 1019.4 0.6
25/08:53am 26.5 24.4 21.7 75 3.2 SE 35 54 19 29 1019.4 1019.3 0.6
25/08:30am 26.3 24.1 21.5 75 3.2 SE 35 52 19 28 1019.2 1019.1 0.6
25/08:12am 25.7 23.9 21.6 78 2.7 SE 33 52 18 28 1019.0 1018.9 0.6
25/08:00am 25.6 23.4 21.5 78 2.7 SE 35 46 19 25 1018.9 1018.8 0.6
25/07:30am 24.3 22.3 21.2 83 2.0 SE 33 46 18 25 1018.5 1018.4 0.6
25/07:00am 23.7 20.9 20.2 81 2.3 ESE 35 57 19 31 1018.5 1018.4 0.0
25/06:32am 25.1 22.9 21.4 80 2.4 SE 35 54 19 29 1018.1 1018.0 0.0
25/06:30am 25.0 22.3 21.3 80 2.4 SE 37 54 20 29 1018.0 1017.9 0.0
25/06:00am 25.0 22.7 21.3 80 2.4 SE 35 48 19 26 1017.5 1017.4 0.0
25/05:30am 24.4 21.9 20.9 81 2.3 SE 35 46 19 25 1017.2 1017.1 0.0
25/05:00am 24.8 22.3 20.9 79 2.6 SE 35 52 19 28 1017.0 1016.9 0.0
25/04:30am 24.3 21.7 20.6 80 2.4 SE 35 48 19 26 1017.1 1017.0 0.0
25/04:00am 24.9 23.5 20.4 76 2.9 SE 28 39 15 21 1017.1 1017.0 0.0
25/03:30am 25.1 22.7 21.0 78 2.7 SE 35 48 19 26 1017.0 1016.9 0.0
25/03:00am 25.2 22.2 19.8 72 3.5 SE 35 46 19 25 1017.1 1017.0 0.0
25/02:30am 25.4 22.1 20.0 72 3.5 SE 37 52 20 28 1017.2 1017.1 0.0
25/02:00am 25.4 22.6 20.2 73 3.4 SE 35 48 19 26 1017.6 1017.5 0.0
25/01:30am 25.4 22.5 20.0 72 3.5 SE 35 50 19 27 1017.7 1017.6 0.0
25/01:00am 25.4 22.4 19.8 71 3.6 SE 35 46 19 25 1018.0 1017.9 0.0
25/12:30am 25.1 22.6 19.7 72 3.5 SE 32 50 17 27 1018.1 1018.0 0.0
25/12:29am 25.1 23.0 19.7 72 3.5 SE 30 50 16 27 1018.1 1018.0 0.0
25/12:00am 25.1 22.4 19.7 72 3.5 SE 33 46 18 25 1018.3 1018.2 0.0
 
Date/Time
EST
Temp
°C
App
Temp
°C
Dew
Point
Rel
Hum
%
Delta-T
°C
Wind Press
QNH
hPa
Press
MSL
hPa
Rain
since 9 am
mm
Dir
 
Spd
km/h
Gust
km/h
Spd
kts
Gust
kts
24/11:30pm 25.4 21.9 19.5 70 3.8 SE 37 50 20 27 1018.4 1018.3 0.0
24/11:20pm 25.3 22.2 19.7 71 3.6 SE 35 54 19 29 1018.4 1018.3 0.0
24/11:00pm 25.3 21.3 19.4 70 3.8 SE 39 54 21 29 1018.6 1018.5 0.0
24/10:33pm 25.3 20.9 19.2 69 3.9 SE 41 59 22 32 1018.5 1018.4 0.0
24/10:30pm 25.3 21.2 19.2 69 3.9 SE 39 54 21 29 1018.5 1018.4 0.0
24/10:03pm 25.2 21.2 19.3 70 3.8 SE 39 57 21 31 1018.4 1018.3 0.0
24/10:00pm 25.2 20.3 19.1 69 3.9 SE 43 57 23 31 1018.3 1018.2 0.0

Other Formats:

Comma delimited format used in spreadsheet applications
http://www.bom.gov.au/fwo/IDQ60801/IDQ60801.94188.axf

JavaScript Object Notation format (JSON) in row-major order
http://www.bom.gov.au/fwo/IDQ60801/IDQ60801.94188.json